Time;durP1;ratioP1;P1;durP2;ratioP2;P2;SDS_P1;SDS_P2;PMS_P1;PMS_P2;Temp;Humidity;BMP_temperature;BMP_pressure;BME280_temperature;BME280_humidity;BME280_pressure;Samples;Min_cycle;Max_cycle;Signal;HPM_P1;HPM_P2
2023/05/12 00:01:15;;;;;;;15.05;9.82;;;12.80;99.90;;;;;;5017463;28;20038;-83
2023/05/12 00:03:41;;;;;;;17.13;10.38;;;13.40;99.90;;;;;;5008545;28;20045;-83
2023/05/12 00:06:07;;;;;;;24.10;13.07;;;12.80;99.90;;;;;;5030716;28;20030;-83
2023/05/12 00:08:32;;;;;;;19.60;11.10;;;12.80;99.90;;;;;;5026299;28;20041;-82
2023/05/12 00:11:01;;;;;;;15.52;9.98;;;12.90;99.90;;;;;;5023149;28;20052;-83
2023/05/12 00:13:30;;;;;;;21.42;13.27;;;12.80;99.90;;;;;;5023781;28;20061;-83
2023/05/12 00:15:57;;;;;;;30.45;15.70;;;12.80;99.90;;;;;;5001745;28;20145;-83
2023/05/12 00:18:24;;;;;;;18.80;11.57;;;12.80;99.90;;;;;;5018859;28;20042;-83
2023/05/12 00:20:53;;;;;;;20.13;12.52;;;12.80;99.90;;;;;;5004568;28;20045;-83
2023/05/12 00:23:21;;;;;;;22.42;11.50;;;12.80;99.90;;;;;;4985799;28;20064;-83
2023/05/12 00:25:47;;;;;;;32.67;16.67;;;12.80;99.90;;;;;;5022701;28;20049;-83
2023/05/12 00:28:12;;;;;;;27.00;15.05;;;12.80;99.90;;;;;;5016066;28;20038;-83
2023/05/12 00:30:38;;;;;;;27.73;16.75;;;13.20;99.90;;;;;;4993900;28;20042;-83
2023/05/12 00:33:13;;;;;;;26.08;14.45;;;12.80;99.90;;;;;;5016977;28;20034;-83
2023/05/12 00:35:39;;;;;;;26.45;14.20;;;12.80;99.90;;;;;;5028330;28;20032;-83
2023/05/12 00:38:04;;;;;;;28.42;15.50;;;12.80;99.90;;;;;;5007008;28;20083;-83
2023/05/12 00:40:33;;;;;;;19.55;10.40;;;12.80;99.90;;;;;;4984732;28;20103;-83
2023/05/12 00:42:58;;;;;;;23.83;14.32;;;12.80;99.90;;;;;;5003540;28;20045;-83
2023/05/12 00:45:29;;;;;;;21.88;13.63;;;12.80;99.90;;;;;;4999054;28;20153;-83
2023/05/12 00:47:55;;;;;;;24.58;15.25;;;12.70;99.90;;;;;;5022801;28;20116;-83
2023/05/12 00:50:21;;;;;;;25.75;16.83;;;12.70;99.90;;;;;;5013359;28;20392;-83
2023/05/12 00:52:48;;;;;;;28.27;15.10;;;12.80;99.90;;;;;;5027829;28;20042;-83
2023/05/12 00:55:14;;;;;;;39.30;18.42;;;12.70;99.90;;;;;;4993372;28;20129;-83
2023/05/12 00:57:43;;;;;;;36.58;17.73;;;12.70;99.90;;;;;;5000722;28;20037;-83
2023/05/12 01:00:12;;;;;;;36.58;16.92;;;12.70;99.90;;;;;;5008012;28;20455;-82
2023/05/12 01:02:38;;;;;;;39.72;20.95;;;12.70;99.90;;;;;;5020723;28;20049;-83
2023/05/12 01:05:05;;;;;;;33.05;18.50;;;12.70;99.90;;;;;;5001792;28;20488;-83
2023/05/12 01:07:35;;;;;;;34.38;17.27;;;12.70;99.90;;;;;;5027942;28;20038;-83
2023/05/12 01:10:15;;;;;;;38.33;19.65;;;12.70;99.90;;;;;;5025377;28;20034;-82
2023/05/12 01:12:40;;;;;;;29.23;16.58;;;12.70;99.90;;;;;;5002686;28;20041;-83
2023/05/12 01:15:07;;;;;;;40.60;20.50;;;12.70;99.90;;;;;;5004837;28;20404;-83
2023/05/12 01:17:34;;;;;;;38.05;21.38;;;12.70;99.90;;;;;;5009117;28;20068;-83
2023/05/12 01:20:05;;;;;;;27.23;15.77;;;12.70;99.90;;;;;;5004197;28;20042;-83
2023/05/12 01:22:32;;;;;;;33.30;18.83;;;12.70;99.90;;;;;;5009820;28;20485;-83
2023/05/12 01:25:07;;;;;;;36.90;20.60;;;12.70;99.90;;;;;;5026440;28;20117;-83
2023/05/12 01:27:33;;;;;;;33.95;19.15;;;12.70;99.90;;;;;;5009807;28;20048;-83
2023/05/12 01:30:02;;;;;;;30.85;16.95;;;12.80;99.90;;;;;;5028973;28;20068;-83
2023/05/12 01:32:29;;;;;;;39.50;21.45;;;12.70;99.90;;;;;;5025876;28;20045;-82
2023/05/12 01:34:55;;;;;;;30.67;18.98;;;12.70;99.90;;;;;;5015210;28;20053;-83
2023/05/12 01:37:21;;;;;;;32.78;18.05;;;12.70;99.90;;;;;;5026074;28;20034;-82
2023/05/12 01:39:47;;;;;;;37.35;21.65;;;12.70;99.90;;;;;;5001767;28;20037;-84
2023/05/12 01:42:13;;;;;;;37.30;20.55;;;12.70;99.90;;;;;;5005978;28;20045;-83
2023/05/12 01:44:38;;;;;;;36.08;21.25;;;12.60;99.90;;;;;;5004171;28;20077;-83
2023/05/12 01:47:08;;;;;;;30.83;18.73;;;12.60;99.90;;;;;;5014587;28;20056;-83
2023/05/12 01:49:34;;;;;;;29.27;17.10;;;12.60;99.90;;;;;;5006781;28;20050;-83
2023/05/12 01:52:00;;;;;;;42.45;23.75;;;12.60;99.90;;;;;;5009107;28;20049;-83
2023/05/12 01:54:26;;;;;;;39.55;22.27;;;12.60;99.90;;;;;;5012699;28;20416;-83
2023/05/12 01:56:52;;;;;;;44.50;24.73;;;12.70;99.90;;;;;;5020338;28;20040;-83
2023/05/12 01:59:17;;;;;;;36.03;20.98;;;12.60;99.90;;;;;;5023087;28;20030;-83
2023/05/12 02:01:43;;;;;;;34.30;19.77;;;12.60;99.90;;;;;;5017990;28;20037;-84
2023/05/12 02:04:09;;;;;;;42.95;23.05;;;12.60;99.90;;;;;;5007660;28;20076;-83
2023/05/12 02:06:35;;;;;;;36.25;20.48;;;12.60;99.90;;;;;;5002764;28;20038;-83
2023/05/12 02:09:01;;;;;;;39.00;22.75;;;12.60;99.90;;;;;;5024556;28;20096;-83
2023/05/12 02:11:26;;;;;;;37.15;21.25;;;12.60;99.90;;;;;;5022176;28;20109;-82
2023/05/12 02:13:52;;;;;;;36.45;21.63;;;12.60;99.90;;;;;;5017597;28;20042;-83
2023/05/12 02:16:17;;;;;;;28.85;18.15;;;12.80;99.90;;;;;;5001189;28;20052;-83
2023/05/12 02:18:43;;;;;;;38.42;23.38;;;12.60;99.90;;;;;;5012094;28;20423;-83
2023/05/12 02:21:09;;;;;;;40.08;23.63;;;12.70;99.90;;;;;;5024451;28;20091;-83
2023/05/12 02:23:34;;;;;;;40.83;23.30;;;12.70;99.90;;;;;;5028235;28;20537;-83
2023/05/12 02:26:00;;;;;;;46.83;25.00;;;12.60;99.90;;;;;;4987170;28;20088;-83
2023/05/12 02:28:25;;;;;;;36.05;21.88;;;13.00;99.90;;;;;;4990317;28;20041;-83
2023/05/12 02:30:51;;;;;;;32.22;19.05;;;12.60;99.90;;;;;;5027999;28;20504;-83
2023/05/12 02:33:25;;;;;;;41.03;23.63;;;12.60;99.90;;;;;;5006621;28;20053;-84
2023/05/12 02:35:51;;;;;;;44.20;25.48;;;12.60;99.90;;;;;;5012810;28;20037;-83
2023/05/12 02:38:17;;;;;;;29.65;17.75;;;12.70;99.90;;;;;;5025544;28;20044;-83
2023/05/12 02:40:43;;;;;;;41.15;21.17;;;12.60;99.90;;;;;;5016856;28;20044;-83
2023/05/12 02:43:08;;;;;;;38.80;21.35;;;12.60;99.90;;;;;;5006746;28;20042;-83
2023/05/12 02:45:35;;;;;;;43.30;24.38;;;12.60;99.90;;;;;;5019183;28;20034;-83
2023/05/12 02:48:00;;;;;;;44.28;26.23;;;12.60;99.90;;;;;;5019583;28;20044;-83
2023/05/12 02:50:28;;;;;;;40.78;21.02;;;12.60;99.90;;;;;;5002379;28;20042;-83
2023/05/12 02:52:54;;;;;;;50.13;26.70;;;12.60;99.90;;;;;;4996942;28;20045;-83
2023/05/12 02:55:20;;;;;;;45.97;25.15;;;12.60;99.90;;;;;;5020768;28;20312;-83
2023/05/12 02:57:45;;;;;;;42.20;22.30;;;12.60;99.90;;;;;;4996233;28;20065;-83
2023/05/12 03:00:12;;;;;;;41.20;22.50;;;12.60;99.90;;;;;;5013640;28;20049;-83
2023/05/12 03:02:38;;;;;;;40.25;23.92;;;12.60;99.90;;;;;;5010714;28;20091;-83
2023/05/12 03:05:05;;;;;;;37.85;22.70;;;12.60;99.90;;;;;;5016850;28;20071;-83
2023/05/12 03:07:30;;;;;;;44.65;24.65;;;12.60;99.90;;;;;;5027943;28;20095;-83
2023/05/12 03:10:00;;;;;;;49.95;24.98;;;12.60;99.90;;;;;;5005552;28;20124;-83
2023/05/12 03:12:28;;;;;;;46.15;25.88;;;12.60;99.90;;;;;;5005119;28;20081;-83
2023/05/12 03:14:55;;;;;;;43.90;23.60;;;12.60;99.90;;;;;;5010698;28;20105;-84
2023/05/12 03:17:20;;;;;;;33.85;20.33;;;12.60;99.90;;;;;;5007654;28;20038;-84
2023/05/12 03:19:46;;;;;;;44.10;26.70;;;12.60;99.90;;;;;;4995281;28;20042;-83
2023/05/12 03:22:13;;;;;;;44.33;23.55;;;12.60;99.90;;;;;;5001894;28;20575;-83
2023/05/12 03:24:38;;;;;;;53.67;29.40;;;12.60;99.90;;;;;;5006601;28;20041;-84
2023/05/12 03:27:04;;;;;;;41.15;23.70;;;12.60;99.90;;;;;;5001372;28;20462;-83
2023/05/12 03:29:30;;;;;;;45.63;24.92;;;13.10;99.90;;;;;;5006993;28;20045;-82
2023/05/12 03:31:56;;;;;;;48.67;26.33;;;12.60;99.90;;;;;;5010296;28;20069;-83
2023/05/12 03:34:22;;;;;;;47.95;27.60;;;12.60;99.90;;;;;;5008316;28;20089;-82
2023/05/12 03:36:48;;;;;;;45.00;24.85;;;12.60;99.90;;;;;;5006930;28;20463;-83
2023/05/12 03:39:13;;;;;;;45.75;26.20;;;12.60;99.90;;;;;;5003113;28;20462;-83
2023/05/12 03:41:39;;;;;;;38.97;22.38;;;12.60;99.90;;;;;;5004580;28;20042;-83
2023/05/12 03:44:07;;;;;;;42.60;23.58;;;12.60;99.90;;;;;;5007616;28;20042;-84
2023/05/12 03:46:33;;;;;;;48.78;25.80;;;12.60;99.90;;;;;;5008381;28;20030;-83
2023/05/12 03:48:59;;;;;;;53.00;29.38;;;12.60;99.90;;;;;;5006568;28;20390;-83
2023/05/12 03:51:26;;;;;;;50.60;27.98;;;12.60;99.90;;;;;;4989545;28;20049;-83
2023/05/12 03:53:52;;;;;;;39.47;22.55;;;12.60;99.90;;;;;;4992911;28;20049;-83
2023/05/12 03:56:18;;;;;;;35.63;22.42;;;12.60;99.90;;;;;;5007387;28;20392;-83
2023/05/12 03:58:46;;;;;;;45.70;24.67;;;12.90;99.90;;;;;;4985298;28;20097;-83
2023/05/12 04:01:12;;;;;;;49.60;27.42;;;12.50;99.90;;;;;;4978792;28;20038;-84
2023/05/12 04:03:39;;;;;;;60.53;30.10;;;12.60;99.90;;;;;;4997060;28;20084;-84
2023/05/12 04:06:08;;;;;;;52.47;30.25;;;12.60;99.90;;;;;;5003324;28;20117;-83
2023/05/12 04:08:34;;;;;;;49.17;23.95;;;12.70;99.90;;;;;;4995984;28;20085;-84
2023/05/12 04:11:01;;;;;;;56.63;28.20;;;12.60;99.90;;;;;;5006359;28;20056;-84
2023/05/12 04:13:32;;;;;;;57.42;29.27;;;12.60;99.90;;;;;;5001430;28;20044;-83
2023/05/12 04:15:59;;;;;;;55.30;27.75;;;12.80;99.90;;;;;;4996042;28;20058;-84
2023/05/12 04:18:26;;;;;;;50.97;26.98;;;12.60;99.90;;;;;;5005272;28;20037;-84
2023/05/12 04:20:52;;;;;;;45.65;25.73;;;12.60;99.90;;;;;;4998900;28;20034;-84
2023/05/12 04:23:18;;;;;;;54.40;26.20;;;12.60;99.90;;;;;;4998955;28;20050;-83
2023/05/12 04:25:45;;;;;;;45.67;24.95;;;12.60;99.90;;;;;;5009159;28;20097;-83
2023/05/12 04:28:14;;;;;;;48.88;27.95;;;12.70;99.90;;;;;;5003735;28;20115;-83
2023/05/12 04:30:42;;;;;;;47.53;26.73;;;12.60;99.90;;;;;;5005736;28;20045;-83
2023/05/12 04:33:08;;;;;;;54.35;27.92;;;12.60;99.90;;;;;;5003077;28;20034;-83
2023/05/12 04:35:34;;;;;;;41.83;23.38;;;12.60;99.90;;;;;;5003746;28;20045;-83
2023/05/12 04:38:01;;;;;;;43.15;25.00;;;12.60;99.90;;;;;;4997512;28;20125;-83
2023/05/12 04:40:29;;;;;;;48.78;26.27;;;12.70;99.90;;;;;;5000985;28;20077;-83
2023/05/12 04:42:55;;;;;;;42.92;22.80;;;12.60;99.90;;;;;;4998531;28;20078;-83
2023/05/12 04:45:21;;;;;;;59.08;27.65;;;12.60;99.90;;;;;;4998169;28;20057;-84
2023/05/12 04:47:47;;;;;;;46.45;26.10;;;12.70;99.90;;;;;;5001000;28;20121;-83
2023/05/12 04:50:13;;;;;;;49.70;27.45;;;12.70;99.90;;;;;;5010450;28;20049;-83
2023/05/12 04:52:39;;;;;;;41.55;24.10;;;12.70;99.90;;;;;;5003675;28;20035;-84
2023/05/12 04:55:06;;;;;;;49.05;27.40;;;12.70;99.90;;;;;;4998324;28;20121;-84
2023/05/12 04:57:35;;;;;;;47.20;27.13;;;12.70;99.90;;;;;;5002680;28;20401;-83
2023/05/12 05:00:03;;;;;;;47.70;26.27;;;12.70;99.90;;;;;;5001540;28;20037;-84
2023/05/12 05:02:29;;;;;;;52.03;28.10;;;12.70;99.90;;;;;;4999903;28;20143;-84
2023/05/12 05:04:56;;;;;;;51.80;27.30;;;12.70;99.90;;;;;;4993557;28;20050;-84
2023/05/12 05:07:22;;;;;;;52.28;30.65;;;12.80;99.90;;;;;;4980749;28;20046;-84
2023/05/12 05:09:48;;;;;;;53.58;27.15;;;12.70;99.90;;;;;;5001380;28;20099;-85
2023/05/12 05:12:14;;;;;;;43.90;25.60;;;12.70;99.90;;;;;;4997132;28;20494;-85
2023/05/12 05:14:39;;;;;;;54.75;27.77;;;12.70;99.90;;;;;;4993585;28;20057;-85
2023/05/12 05:17:10;;;;;;;50.80;28.60;;;12.70;99.90;;;;;;5001628;28;20046;-85
2023/05/12 05:19:41;;;;;;;53.35;29.05;;;12.70;99.90;;;;;;4999261;28;20076;-86
2023/05/12 05:22:06;;;;;;;48.03;27.73;;;12.70;99.90;;;;;;4985169;28;20334;-87
2023/05/12 05:24:32;;;;;;;51.13;30.27;;;12.80;99.90;;;;;;5001540;28;20042;-86
2023/05/12 05:26:58;;;;;;;45.60;26.92;;;12.80;99.90;;;;;;5000628;28;20170;-85
2023/05/12 05:29:25;;;;;;;46.97;27.15;;;12.80;99.90;;;;;;4996415;28;20037;-87
2023/05/12 05:31:51;;;;;;;38.80;24.25;;;12.80;99.90;;;;;;4988895;28;20046;-86
2023/05/12 05:34:17;;;;;;;51.13;29.48;;;12.80;99.90;;;;;;5000772;28;20093;-86
2023/05/12 05:36:43;;;;;;;47.35;26.05;;;12.80;99.90;;;;;;5001513;28;20038;-87
2023/05/12 05:39:11;;;;;;;37.30;23.88;;;12.80;99.90;;;;;;5000783;28;20069;-87
2023/05/12 05:41:37;;;;;;;58.25;28.40;;;12.80;99.90;;;;;;5012180;28;20757;-86
2023/05/12 05:44:03;;;;;;;54.60;31.23;;;12.80;99.90;;;;;;4998808;28;20037;-89
2023/05/12 05:46:28;;;;;;;52.72;28.02;;;12.80;99.90;;;;;;5001179;28;20080;-88
2023/05/12 05:48:54;;;;;;;57.40;30.13;;;12.80;99.90;;;;;;4997222;28;20041;-87
2023/05/12 05:51:20;;;;;;;49.72;28.73;;;12.80;99.90;;;;;;5004582;28;20042;-86
2023/05/12 05:53:46;;;;;;;61.25;30.38;;;12.90;99.90;;;;;;4999617;28;20091;-88
2023/05/12 05:56:12;;;;;;;54.35;30.67;;;12.90;99.90;;;;;;5002370;28;20042;-87
2023/05/12 05:58:37;;;;;;;58.85;29.88;;;12.90;99.90;;;;;;5002403;28;20040;-84
2023/05/12 06:01:03;;;;;;;57.35;30.10;;;12.90;99.90;;;;;;5002510;28;20043;-81
2023/05/12 06:03:29;;;;;;;46.58;26.02;;;12.90;99.90;;;;;;5005452;28;20046;-87
2023/05/12 06:05:55;;;;;;;51.47;27.17;;;12.90;99.90;;;;;;5000368;28;20540;-88
2023/05/12 06:08:21;;;;;;;59.08;31.63;;;12.90;99.90;;;;;;4999803;28;20057;-88
2023/05/12 06:10:46;;;;;;;45.80;26.95;;;13.00;99.90;;;;;;5001406;28;20034;-87
2023/05/12 06:13:12;;;;;;;50.90;29.35;;;13.00;99.90;;;;;;4982771;28;20141;-88
2023/05/12 06:15:41;;;;;;;52.72;28.65;;;13.00;99.90;;;;;;5007072;28;20050;-88
2023/05/12 06:18:07;;;;;;;44.20;25.55;;;13.00;99.90;;;;;;5000856;28;20046;-89
2023/05/12 06:20:33;;;;;;;42.85;24.92;;;13.10;99.90;;;;;;5005892;28;20045;-86
2023/05/12 06:22:58;;;;;;;43.85;25.23;;;13.10;99.90;;;;;;4997594;28;20117;-86
2023/05/12 06:25:24;;;;;;;41.90;26.30;;;13.20;99.90;;;;;;5000955;28;20523;-89
2023/05/12 06:27:51;;;;;;;44.47;26.83;;;13.10;99.90;;;;;;5005482;28;20045;-89
2023/05/12 06:30:17;;;;;;;49.13;28.02;;;13.10;99.90;;;;;;4998994;28;20133;-86
2023/05/12 06:32:43;;;;;;;53.25;27.85;;;13.10;99.90;;;;;;5001327;28;20381;-86
2023/05/12 06:35:09;;;;;;;49.10;29.25;;;13.20;99.90;;;;;;5002527;28;20040;-86
2023/05/12 06:37:35;;;;;;;49.85;27.85;;;13.20;99.90;;;;;;5002908;28;20191;-86
2023/05/12 06:40:00;;;;;;;50.35;28.77;;;13.20;99.90;;;;;;5002425;28;20088;-86
2023/05/12 06:42:26;;;;;;;46.72;27.35;;;13.20;99.90;;;;;;5000755;28;20045;-86
2023/05/12 06:44:52;;;;;;;44.08;27.35;;;13.20;99.90;;;;;;4997772;28;20403;-86
2023/05/12 06:47:17;;;;;;;50.97;29.05;;;13.20;99.90;;;;;;5002601;28;20061;-87
2023/05/12 06:49:43;;;;;;;55.97;30.25;;;13.30;99.90;;;;;;5001041;28;20046;-85
2023/05/12 06:52:09;;;;;;;46.67;25.35;;;13.30;99.90;;;;;;4996414;28;20038;-86
2023/05/12 06:54:35;;;;;;;53.47;30.33;;;13.30;99.90;;;;;;4996135;28;20056;-87
2023/05/12 06:57:03;;;;;;;49.33;28.67;;;13.30;99.90;;;;;;5001615;28;20040;-86
2023/05/12 06:59:29;;;;;;;44.28;26.42;;;13.30;99.90;;;;;;5007661;28;20163;-87
2023/05/12 07:01:55;;;;;;;35.80;22.75;;;13.30;99.90;;;;;;4993949;28;20319;-86
2023/05/12 07:04:21;;;;;;;45.95;28.65;;;13.30;99.90;;;;;;4998904;28;20122;-87
2023/05/12 07:06:47;;;;;;;52.67;31.52;;;13.30;99.90;;;;;;5002916;28;20113;-88
2023/05/12 07:09:13;;;;;;;52.95;30.38;;;13.30;99.90;;;;;;4981454;28;20465;-87
2023/05/12 07:11:38;;;;;;;47.85;29.35;;;13.30;99.90;;;;;;4996249;28;20054;-88
2023/05/12 07:14:05;;;;;;;43.83;25.67;;;13.30;99.90;;;;;;4999545;28;20035;-88
2023/05/12 07:16:31;;;;;;;57.78;32.58;;;13.30;99.90;;;;;;4997818;28;20069;-87
2023/05/12 07:18:56;;;;;;;51.88;30.83;;;13.40;99.90;;;;;;4996500;28;20048;-87
2023/05/12 07:21:23;;;;;;;57.03;30.77;;;13.40;99.90;;;;;;4997514;28;20144;-87
2023/05/12 07:23:49;;;;;;;53.88;31.30;;;13.50;99.90;;;;;;4999055;28;20117;-87
2023/05/12 07:26:15;;;;;;;57.58;33.17;;;13.50;99.90;;;;;;5002095;28;20041;-87
2023/05/12 07:28:41;;;;;;;59.15;32.17;;;13.60;99.90;;;;;;5020008;28;20034;-87
2023/05/12 07:31:07;;;;;;;54.10;32.80;;;13.60;99.90;;;;;;5000729;28;20115;-88
2023/05/12 07:33:34;;;;;;;56.75;31.60;;;13.70;99.90;;;;;;5008591;28;20037;-88
2023/05/12 07:36:01;;;;;;;56.60;33.92;;;13.70;99.90;;;;;;4996787;28;20034;-88
2023/05/12 07:38:27;;;;;;;57.20;34.50;;;13.80;99.90;;;;;;4994814;28;20495;-88
2023/05/12 07:40:53;;;;;;;62.92;34.00;;;13.90;99.90;;;;;;5004887;28;20056;-87
2023/05/12 07:43:19;;;;;;;58.78;34.53;;;14.00;99.90;;;;;;4998279;28;20417;-88
2023/05/12 07:45:45;;;;;;;60.10;35.05;;;14.20;99.90;;;;;;5000061;28;20041;-87
2023/05/12 07:48:11;;;;;;;57.50;34.35;;;14.30;99.90;;;;;;4992563;28;20046;-87
2023/05/12 07:50:37;;;;;;;45.92;30.63;;;14.50;99.90;;;;;;4994646;28;20037;-87
2023/05/12 07:53:04;;;;;;;52.83;32.60;;;14.60;99.90;;;;;;4984619;28;20042;-88
2023/05/12 07:55:32;;;;;;;52.10;32.53;;;14.60;99.90;;;;;;4998651;28;20061;-87
2023/05/12 07:57:58;;;;;;;50.22;33.40;;;14.70;99.90;;;;;;5004692;28;20034;-88
2023/05/12 08:00:23;;;;;;;54.28;33.70;;;14.90;99.90;;;;;;5000560;28;20549;-88
2023/05/12 08:02:49;;;;;;;49.63;31.65;;;14.90;99.90;;;;;;4993702;28;20126;-88
2023/05/12 08:05:15;;;;;;;56.60;34.60;;;14.90;99.90;;;;;;5007611;28;20044;-88
2023/05/12 08:07:42;;;;;;;48.90;32.95;;;15.00;99.90;;;;;;5001598;28;20057;-88
2023/05/12 08:10:10;;;;;;;50.90;34.88;;;15.00;99.90;;;;;;4996567;28;20056;-89
2023/05/12 08:12:36;;;;;;;47.15;32.75;;;15.10;99.90;;;;;;4980049;28;20092;-87
2023/05/12 08:15:02;;;;;;;53.15;34.08;;;15.10;99.90;;;;;;4999676;28;20077;-88
2023/05/12 08:17:28;;;;;;;40.40;28.98;;;15.20;99.90;;;;;;4999181;28;20086;-88
2023/05/12 08:19:54;;;;;;;49.88;34.33;;;15.20;99.90;;;;;;4997821;28;20049;-88
2023/05/12 08:22:19;;;;;;;47.38;33.45;;;15.30;99.90;;;;;;4995066;28;20044;-88
2023/05/12 08:24:45;;;;;;;50.20;34.95;;;15.50;99.90;;;;;;5001059;28;20089;-88
2023/05/12 08:27:11;;;;;;;50.05;35.50;;;15.40;99.90;;;;;;5003996;28;20045;-89
2023/05/12 08:29:37;;;;;;;50.58;36.38;;;15.50;99.90;;;;;;4991615;28;20500;-89
2023/05/12 08:32:03;;;;;;;45.50;33.42;;;15.70;99.90;;;;;;5004257;28;20088;-89
2023/05/12 08:34:29;;;;;;;45.40;33.17;;;15.70;99.90;;;;;;4998530;28;20050;-89
2023/05/12 08:36:54;;;;;;;45.22;31.02;;;15.90;99.90;;;;;;5004555;28;20097;-88
2023/05/12 08:39:20;;;;;;;41.33;30.17;;;16.00;99.90;;;;;;4993776;28;20493;-88
2023/05/12 08:42:12;;;;;;;41.33;31.70;;;16.10;99.90;;;;;;5000801;28;20038;-88
2023/05/12 08:44:39;;;;;;;41.08;29.60;;;16.30;99.90;;;;;;4993346;28;20056;-89
2023/05/12 08:47:05;;;;;;;42.38;31.42;;;16.40;99.90;;;;;;4998551;28;20046;-86
2023/05/12 08:49:34;;;;;;;40.30;30.38;;;16.50;99.90;;;;;;5000811;28;20437;-90
2023/05/12 08:52:02;;;;;;;41.72;30.90;;;16.60;99.90;;;;;;5004048;28;20044;-87
2023/05/12 08:54:28;;;;;;;42.60;31.23;;;16.80;99.90;;;;;;5001861;28;20046;-85
2023/05/12 08:56:55;;;;;;;40.03;29.00;;;16.90;99.90;;;;;;5000372;28;20096;-86
2023/05/12 08:59:23;;;;;;;41.67;31.17;;;17.00;99.90;;;;;;4985837;28;20046;-84
2023/05/12 09:01:49;;;;;;;40.90;29.75;;;17.10;99.90;;;;;;5006654;28;20531;-89
2023/05/12 09:04:16;;;;;;;41.60;29.60;;;17.10;99.90;;;;;;5002860;28;20281;-86
2023/05/12 09:06:45;;;;;;;38.60;30.10;;;17.10;99.90;;;;;;5007979;28;20121;-85
2023/05/12 09:09:16;;;;;;;37.33;29.42;;;17.20;99.90;;;;;;4996752;28;20049;-91
2023/05/12 09:11:42;;;;;;;42.42;31.38;;;17.30;99.90;;;;;;5004550;28;20042;-94
2023/05/12 09:14:13;;;;;;;36.25;29.08;;;17.30;99.90;;;;;;5008238;28;20129;-94
2023/05/12 09:16:44;;;;;;;37.88;30.42;;;17.30;99.90;;;;;;5007032;28;20046;-95
2023/05/12 09:19:09;;;;;;;33.88;27.65;;;17.40;99.90;;;;;;5009373;28;20049;-93
2023/05/12 09:21:36;;;;;;;31.60;24.70;;;17.60;99.90;;;;;;5005096;28;20038;-96
2023/05/12 09:24:06;;;;;;;35.90;27.48;;;17.80;99.90;;;;;;5014427;28;20050;-89
2023/05/12 09:26:45;;;;;;;35.53;25.63;;;18.00;99.90;;;;;;5017038;28;20053;-93
2023/05/12 09:29:11;;;;;;;33.80;26.20;;;18.30;99.90;;;;;;5011490;28;20046;-94
2023/05/12 09:31:37;;;;;;;29.95;24.63;;;18.40;99.90;;;;;;5013911;28;20033;-93
2023/05/12 09:34:07;;;;;;;35.03;26.75;;;18.50;99.90;;;;;;5010172;28;20044;-93
2023/05/12 09:36:34;;;;;;;32.88;26.75;;;18.60;99.90;;;;;;5010661;28;20034;-93
2023/05/12 09:39:03;;;;;;;32.75;26.17;;;18.60;99.90;;;;;;5017984;28;20448;-95
2023/05/12 09:41:39;;;;;;;30.33;25.65;;;18.60;99.90;;;;;;5011974;28;20048;-93
2023/05/12 09:44:07;;;;;;;31.63;25.55;;;18.70;99.90;;;;;;5007819;28;20076;-94
2023/05/12 09:46:33;;;;;;;31.65;24.52;;;18.70;99.90;;;;;;5003730;28;20086;-95
2023/05/12 09:48:59;;;;;;;30.27;25.85;;;18.70;99.90;;;;;;5008296;28;20125;-94
2023/05/12 09:51:26;;;;;;;32.08;26.45;;;18.70;99.90;;;;;;4996580;28;20080;-96
2023/05/12 09:53:52;;;;;;;31.40;26.23;;;18.80;99.90;;;;;;5015868;28;20088;-93
2023/05/12 09:56:18;;;;;;;28.83;24.13;;;18.80;99.90;;;;;;5008749;28;20073;-94
2023/05/12 09:58:46;;;;;;;30.27;25.35;;;18.90;99.90;;;;;;5015695;28;20090;-93
2023/05/12 10:01:17;;;;;;;32.55;24.92;;;19.00;99.90;;;;;;5011861;28;20073;-96
2023/05/12 10:03:49;;;;;;;34.92;24.17;;;19.20;99.90;;;;;;5015291;28;20042;-94
2023/05/12 10:06:29;;;;;;;28.80;23.98;;;19.40;99.90;;;;;;5013725;28;20089;-93
2023/05/12 10:09:10;;;;;;;29.17;23.88;;;19.50;99.90;;;;;;5007829;28;20066;-92
2023/05/12 10:11:36;;;;;;;29.85;23.90;;;19.70;99.90;;;;;;5012119;28;20488;-89
2023/05/12 10:14:03;;;;;;;29.75;24.58;;;19.70;99.90;;;;;;5012746;28;20078;-89
2023/05/12 10:16:29;;;;;;;31.80;25.85;;;19.80;99.90;;;;;;5009153;28;20124;-90
2023/05/12 10:18:55;;;;;;;27.13;23.75;;;19.90;99.90;;;;;;5011513;28;20046;-90
2023/05/12 10:21:24;;;;;;;28.83;23.10;;;20.00;99.90;;;;;;5007298;28;20255;-89
2023/05/12 10:23:51;;;;;;;28.20;22.08;;;20.10;99.90;;;;;;5004816;28;20049;-90
2023/05/12 10:26:17;;;;;;;27.42;22.77;;;20.20;99.90;;;;;;5002254;28;20046;-89
2023/05/12 10:28:45;;;;;;;29.35;22.13;;;20.20;99.90;;;;;;5007234;28;20053;-89
2023/05/12 10:31:14;;;;;;;24.90;21.58;;;20.30;99.90;;;;;;5007221;28;20049;-90
2023/05/12 10:33:40;;;;;;;24.63;21.25;;;20.30;99.90;;;;;;4990649;28;20061;-89
2023/05/12 10:36:18;;;;;;;26.52;22.50;;;20.50;99.90;;;;;;5011899;28;20037;-90
2023/05/12 10:38:50;;;;;;;28.00;21.67;;;20.50;99.90;;;;;;5013778;28;20153;-90
2023/05/12 10:41:32;;;;;;;24.65;20.65;;;20.60;99.90;;;;;;5006426;28;20047;-90
2023/05/12 10:43:58;;;;;;;25.80;21.25;;;20.50;99.90;;;;;;5003344;28;20074;-91
2023/05/12 10:46:28;;;;;;;24.90;19.85;;;20.70;99.90;;;;;;5007304;28;20053;-90
2023/05/12 10:48:59;;;;;;;24.63;19.77;;;20.80;99.90;;;;;;5002730;28;20541;-92
2023/05/12 10:51:27;;;;;;;23.63;18.95;;;20.90;99.90;;;;;;5009690;28;20046;-84
2023/05/12 10:53:58;;;;;;;23.42;19.17;;;20.90;99.90;;;;;;5010384;28;20561;-90
2023/05/12 10:56:27;;;;;;;22.40;19.13;;;21.10;99.90;;;;;;5014764;28;20062;-89
2023/05/12 10:59:16;;;;;;;21.33;18.30;;;21.30;99.90;;;;;;5013911;28;20092;-90
2023/05/12 11:02:21;;;;;;;19.63;16.85;;;21.40;99.90;;;;;;5012306;28;20049;-90
2023/05/12 11:04:54;;;;;;;20.48;18.17;;;21.60;99.90;;;;;;5014555;28;20050;-91
2023/05/12 11:07:23;;;;;;;20.00;17.35;;;21.70;99.90;;;;;;5003479;28;20157;-91
2023/05/12 11:09:49;;;;;;;20.73;15.70;;;21.70;99.90;;;;;;5009176;28;20053;-91
2023/05/12 11:12:15;;;;;;;19.17;16.63;;;21.80;99.90;;;;;;4995066;28;20047;-90
2023/05/12 11:14:43;;;;;;;19.23;15.70;;;21.90;99.90;;;;;;5014593;28;20041;-91
2023/05/12 11:17:09;;;;;;;17.75;14.75;;;22.00;99.90;;;;;;5006646;28;20045;-91
2023/05/12 11:19:36;;;;;;;18.80;14.88;;;22.10;99.90;;;;;;5014715;28;20527;-91
2023/05/12 11:22:10;;;;;;;20.00;14.95;;;22.20;99.90;;;;;;5009689;28;20035;-91
2023/05/12 11:24:37;;;;;;;17.00;14.88;;;22.30;99.90;;;;;;5005999;28;20492;-90
2023/05/12 11:27:05;;;;;;;16.70;14.68;;;22.40;99.90;;;;;;5010948;28;20085;-91
2023/05/12 11:29:31;;;;;;;20.50;14.20;;;22.60;99.90;;;;;;5011949;28;20052;-92
2023/05/12 11:31:59;;;;;;;17.75;13.95;;;22.60;99.90;;;;;;5005533;28;20033;-92
2023/05/12 11:34:26;;;;;;;14.82;11.68;;;22.70;99.90;;;;;;4999575;28;20046;-91
2023/05/12 11:36:54;;;;;;;14.52;10.73;;;22.80;99.90;;;;;;5004486;28;20116;-90
2023/05/12 11:39:26;;;;;;;15.20;10.05;;;22.90;99.90;;;;;;4983248;28;20321;-90
2023/05/12 11:41:53;;;;;;;16.02;10.30;;;22.90;99.90;;;;;;5006545;28;20101;-90
2023/05/12 11:44:20;;;;;;;12.57;10.02;;;23.00;99.90;;;;;;5012544;28;20045;-90
2023/05/12 11:46:59;;;;;;;12.35;9.40;;;23.10;99.90;;;;;;5003069;28;20191;-90
2023/05/12 11:49:26;;;;;;;10.70;8.00;;;23.20;99.90;;;;;;4995891;28;20105;-90
2023/05/12 11:52:01;;;;;;;13.23;10.20;;;23.30;99.90;;;;;;5028409;28;20042;-89
2023/05/12 11:54:29;;;;;;;14.75;10.10;;;23.40;99.90;;;;;;5000695;28;20095;-90
2023/05/12 11:56:56;;;;;;;11.68;8.93;;;23.40;99.90;;;;;;5007077;28;20033;-91
2023/05/12 11:59:28;;;;;;;13.77;10.23;;;23.40;99.90;;;;;;4987749;28;20084;-90
2023/05/12 12:01:55;;;;;;;10.13;8.60;;;23.60;99.90;;;;;;4998633;28;20041;-90
2023/05/12 12:04:34;;;;;;;10.05;8.52;;;23.60;99.90;;;;;;4992599;28;20057;-91
2023/05/12 12:07:00;;;;;;;10.30;6.32;;;23.70;99.90;;;;;;5019629;28;20038;-91
2023/05/12 12:09:40;;;;;;;10.60;5.43;;;23.80;99.90;;;;;;5002977;28;20056;-91
2023/05/12 12:12:07;;;;;;;8.10;4.40;;;23.80;99.90;;;;;;5004343;28;20556;-92
2023/05/12 12:14:36;;;;;;;8.23;4.63;;;23.90;99.90;;;;;;5028709;28;20029;-92
2023/05/12 12:17:02;;;;;;;8.30;4.40;;;23.90;99.90;;;;;;5021281;28;20163;-91
2023/05/12 12:19:28;;;;;;;6.22;4.93;;;24.00;99.90;;;;;;4999418;28;20103;-91
2023/05/12 12:21:54;;;;;;;8.75;4.25;;;24.10;99.90;;;;;;5010324;28;20500;-92
2023/05/12 12:24:20;;;;;;;6.22;3.67;;;24.10;99.90;;;;;;5022648;28;20044;-91
2023/05/12 12:26:46;;;;;;;6.47;2.90;;;24.20;99.90;;;;;;5005489;28;20045;-92
2023/05/12 12:29:12;;;;;;;6.90;3.53;;;24.30;99.90;;;;;;5025662;28;20076;-91